sensor_id;sensor_type;location;lat;lon;timestamp;pressure;altitude;pressure_sealevel;temperature;humidity
57192;BME280;43052;52.588;13.396;2023-04-21T00:00:43;101620.75;;;8.90;70.42
57192;BME280;43052;52.588;13.396;2023-04-21T00:03:08;101621.66;;;8.92;70.68
57192;BME280;43052;52.588;13.396;2023-04-21T00:05:34;101618.97;;;8.87;70.66
57192;BME280;43052;52.588;13.396;2023-04-21T00:07:59;101616.31;;;8.83;70.53
57192;BME280;43052;52.588;13.396;2023-04-21T00:10:24;101622.38;;;8.82;70.88
57192;BME280;43052;52.588;13.396;2023-04-21T00:12:49;101616.25;;;8.80;71.14
57192;BME280;43052;52.588;13.396;2023-04-21T00:15:14;101617.13;;;8.80;71.18
57192;BME280;43052;52.588;13.396;2023-04-21T00:17:40;101616.22;;;8.78;71.42
57192;BME280;43052;52.588;13.396;2023-04-21T00:20:06;101615.34;;;8.77;71.46
57192;BME280;43052;52.588;13.396;2023-04-21T00:22:32;101603.13;;;8.73;71.55
57192;BME280;43052;52.588;13.396;2023-04-21T00:24:58;101605.72;;;8.73;71.77
57192;BME280;43052;52.588;13.396;2023-04-21T00:27:23;101607.44;;;8.73;71.73
57192;BME280;43052;52.588;13.396;2023-04-21T00:29:48;101612.69;;;8.74;72.00
57192;BME280;43052;52.588;13.396;2023-04-21T00:32:13;101607.41;;;8.70;71.64
57192;BME280;43052;52.588;13.396;2023-04-21T00:34:39;101599.53;;;8.65;71.94
57192;BME280;43052;52.588;13.396;2023-04-21T00:37:04;101604.72;;;8.65;71.81
57192;BME280;43052;52.588;13.396;2023-04-21T00:39:29;101600.31;;;8.61;71.83
57192;BME280;43052;52.588;13.396;2023-04-21T00:41:54;101598.53;;;8.58;72.02
57192;BME280;43052;52.588;13.396;2023-04-21T00:44:21;101601.06;;;8.52;72.09
57192;BME280;43052;52.588;13.396;2023-04-21T00:46:46;101600.03;;;8.45;71.90
57192;BME280;43052;52.588;13.396;2023-04-21T00:49:13;101603.31;;;8.35;72.16
57192;BME280;43052;52.588;13.396;2023-04-21T00:51:38;101603.22;;;8.29;72.16
57192;BME280;43052;52.588;13.396;2023-04-21T00:54:05;101601.47;;;8.26;72.58
57192;BME280;43052;52.588;13.396;2023-04-21T00:56:32;101602.28;;;8.24;72.68
57192;BME280;43052;52.588;13.396;2023-04-21T00:58:59;101593.50;;;8.20;72.75
57192;BME280;43052;52.588;13.396;2023-04-21T01:01:25;101598.00;;;8.27;72.97
57192;BME280;43052;52.588;13.396;2023-04-21T01:03:51;101591.97;;;8.30;72.62
57192;BME280;43052;52.588;13.396;2023-04-21T01:06:17;101589.34;;;8.30;72.67
57192;BME280;43052;52.588;13.396;2023-04-21T01:08:44;101572.56;;;8.14;72.64
57192;BME280;43052;52.588;13.396;2023-04-21T01:11:11;101597.09;;;8.25;72.83
57192;BME280;43052;52.588;13.396;2023-04-21T01:13:37;101593.56;;;8.22;72.86
57192;BME280;43052;52.588;13.396;2023-04-21T01:16:03;101591.91;;;8.27;73.11
57192;BME280;43052;52.588;13.396;2023-04-21T01:18:29;101585.00;;;8.29;72.81
57192;BME280;43052;52.588;13.396;2023-04-21T01:20:54;101595.56;;;8.37;72.44
57192;BME280;43052;52.588;13.396;2023-04-21T01:23:20;101591.13;;;8.31;72.41
57192;BME280;43052;52.588;13.396;2023-04-21T01:25:46;101591.03;;;8.26;72.28
57192;BME280;43052;52.588;13.396;2023-04-21T01:28:11;101583.91;;;8.18;72.29
57192;BME280;43052;52.588;13.396;2023-04-21T01:30:36;101578.53;;;8.08;72.43
57192;BME280;43052;52.588;13.396;2023-04-21T01:33:02;101583.75;;;8.08;72.42
57192;BME280;43052;52.588;13.396;2023-04-21T01:35:27;101579.31;;;8.03;72.41
57192;BME280;43052;52.588;13.396;2023-04-21T01:37:52;101578.38;;;7.99;72.45
57192;BME280;43052;52.588;13.396;2023-04-21T01:40:17;101569.78;;;8.03;72.73
57192;BME280;43052;52.588;13.396;2023-04-21T01:42:43;101576.00;;;8.11;72.68
57192;BME280;43052;52.588;13.396;2023-04-21T01:45:09;101574.34;;;8.16;72.50
57192;BME280;43052;52.588;13.396;2023-04-21T01:47:34;101576.06;;;8.14;72.28
57192;BME280;43052;52.588;13.396;2023-04-21T01:49:59;101583.06;;;8.17;71.96
57192;BME280;43052;52.588;13.396;2023-04-21T01:52:30;101576.91;;;8.13;72.07
57192;BME280;43052;52.588;13.396;2023-04-21T01:54:55;101571.72;;;8.13;72.00
57192;BME280;43052;52.588;13.396;2023-04-21T01:57:20;101563.84;;;8.12;71.76
57192;BME280;43052;52.588;13.396;2023-04-21T01:59:45;101563.03;;;8.14;71.62
57192;BME280;43052;52.588;13.396;2023-04-21T02:02:11;101577.00;;;8.20;71.37
57192;BME280;43052;52.588;13.396;2023-04-21T02:04:36;101578.78;;;8.21;71.45
57192;BME280;43052;52.588;13.396;2023-04-21T02:07:01;101571.81;;;8.20;71.42
57192;BME280;43052;52.588;13.396;2023-04-21T02:09:27;101577.00;;;8.20;71.04
57192;BME280;43052;52.588;13.396;2023-04-21T02:11:54;101574.38;;;8.18;71.01
57192;BME280;43052;52.588;13.396;2023-04-21T02:14:19;101569.97;;;8.15;71.17
57192;BME280;43052;52.588;13.396;2023-04-21T02:16:44;101568.28;;;8.18;71.00
57192;BME280;43052;52.588;13.396;2023-04-21T02:19:10;101565.75;;;8.22;70.62
57192;BME280;43052;52.588;13.396;2023-04-21T02:21:35;101558.63;;;8.12;70.77
57192;BME280;43052;52.588;13.396;2023-04-21T02:24:01;101556.91;;;8.11;70.92
57192;BME280;43052;52.588;13.396;2023-04-21T02:26:26;101558.69;;;8.13;70.75
57192;BME280;43052;52.588;13.396;2023-04-21T02:28:51;101557.88;;;8.18;70.59
57192;BME280;43052;52.588;13.396;2023-04-21T02:31:16;101553.50;;;8.16;70.38
57192;BME280;43052;52.588;13.396;2023-04-21T02:33:42;101558.72;;;8.16;70.39
57192;BME280;43052;52.588;13.396;2023-04-21T02:36:08;101557.84;;;8.14;70.04
57192;BME280;43052;52.588;13.396;2023-04-21T02:38:33;101553.56;;;8.18;70.20
57192;BME280;43052;52.588;13.396;2023-04-21T02:40:58;101566.53;;;8.16;70.06
57192;BME280;43052;52.588;13.396;2023-04-21T02:43:24;101564.66;;;8.09;69.98
57192;BME280;43052;52.588;13.396;2023-04-21T02:45:49;101559.44;;;8.06;69.91
57192;BME280;43052;52.588;13.396;2023-04-21T02:48:14;101565.44;;;8.04;70.31
57192;BME280;43052;52.588;13.396;2023-04-21T02:50:41;101563.69;;;8.03;70.02
57192;BME280;43052;52.588;13.396;2023-04-21T02:53:07;101557.59;;;8.00;70.18
57192;BME280;43052;52.588;13.396;2023-04-21T02:55:32;101565.34;;;7.99;69.89
57192;BME280;43052;52.588;13.396;2023-04-21T02:57:57;101553.91;;;7.91;70.10
57192;BME280;43052;52.588;13.396;2023-04-21T03:00:22;101558.28;;;7.92;69.85
57192;BME280;43052;52.588;13.396;2023-04-21T03:02:48;101552.13;;;7.87;70.13
57192;BME280;43052;52.588;13.396;2023-04-21T03:05:13;101556.53;;;7.91;69.86
57192;BME280;43052;52.588;13.396;2023-04-21T03:07:38;101557.41;;;7.91;69.82
57192;BME280;43052;52.588;13.396;2023-04-21T03:10:05;101554.75;;;7.88;69.85
57192;BME280;43052;52.588;13.396;2023-04-21T03:12:31;101550.38;;;7.86;69.65
57192;BME280;43052;52.588;13.396;2023-04-21T03:14:56;101552.22;;;7.91;69.72
57192;BME280;43052;52.588;13.396;2023-04-21T03:17:21;101551.28;;;7.88;69.70
57192;BME280;43052;52.588;13.396;2023-04-21T03:19:46;101554.66;;;7.83;69.72
57192;BME280;43052;52.588;13.396;2023-04-21T03:22:12;101558.88;;;7.77;69.64
57192;BME280;43052;52.588;13.396;2023-04-21T03:24:37;101552.78;;;7.75;69.71
57192;BME280;43052;52.588;13.396;2023-04-21T03:27:04;101550.94;;;7.69;69.71
57192;BME280;43052;52.588;13.396;2023-04-21T03:29:29;101556.88;;;7.62;70.28
57192;BME280;43052;52.588;13.396;2023-04-21T03:31:54;101555.13;;;7.61;70.21
57192;BME280;43052;52.588;13.396;2023-04-21T03:34:20;101532.25;;;7.44;70.10
57192;BME280;43052;52.588;13.396;2023-04-21T03:36:45;101554.94;;;7.51;69.91
57192;BME280;43052;52.588;13.396;2023-04-21T03:39:10;101555.69;;;7.46;70.18
57192;BME280;43052;52.588;13.396;2023-04-21T03:41:35;101553.09;;;7.47;70.29
57192;BME280;43052;52.588;13.396;2023-04-21T03:44:01;101560.06;;;7.47;70.06
57192;BME280;43052;52.588;13.396;2023-04-21T03:46:26;101553.94;;;7.45;70.05
57192;BME280;43052;52.588;13.396;2023-04-21T03:48:51;101555.59;;;7.41;70.36
57192;BME280;43052;52.588;13.396;2023-04-21T03:51:17;101554.69;;;7.41;70.42
57192;BME280;43052;52.588;13.396;2023-04-21T03:53:42;101553.72;;;7.34;70.23
57192;BME280;43052;52.588;13.396;2023-04-21T03:56:07;101554.56;;;7.33;70.35
57192;BME280;43052;52.588;13.396;2023-04-21T03:58:33;101565.06;;;7.37;70.45
57192;BME280;43052;52.588;13.396;2023-04-21T04:00:59;101551.16;;;7.37;70.38
57192;BME280;43052;52.588;13.396;2023-04-21T04:03:24;101565.19;;;7.44;70.33
57192;BME280;43052;52.588;13.396;2023-04-21T04:05:49;101557.38;;;7.44;70.00
57192;BME280;43052;52.588;13.396;2023-04-21T04:08:14;101563.41;;;7.43;70.25
57192;BME280;43052;52.588;13.396;2023-04-21T04:10:40;101565.19;;;7.45;69.72
57192;BME280;43052;52.588;13.396;2023-04-21T04:13:05;101562.59;;;7.45;69.96
57192;BME280;43052;52.588;13.396;2023-04-21T04:15:30;101560.00;;;7.45;69.88
57192;BME280;43052;52.588;13.396;2023-04-21T04:17:56;101564.44;;;7.51;69.93
57192;BME280;43052;52.588;13.396;2023-04-21T04:20:21;101568.78;;;7.50;69.96
57192;BME280;43052;52.588;13.396;2023-04-21T04:22:46;101567.94;;;7.51;69.95
57192;BME280;43052;52.588;13.396;2023-04-21T04:25:11;101577.63;;;7.59;69.76
57192;BME280;43052;52.588;13.396;2023-04-21T04:27:39;101576.91;;;7.66;69.71
57192;BME280;43052;52.588;13.396;2023-04-21T04:30:04;101558.84;;;7.74;69.62
57192;BME280;43052;52.588;13.396;2023-04-21T04:32:30;101564.22;;;7.84;69.30
57192;BME280;43052;52.588;13.396;2023-04-21T04:34:55;101564.41;;;7.95;69.43
57192;BME280;43052;52.588;13.396;2023-04-21T04:37:21;101578.59;;;8.11;69.13
57192;BME280;43052;52.588;13.396;2023-04-21T04:39:46;101569.28;;;8.24;68.88
57192;BME280;43052;52.588;13.396;2023-04-21T04:42:11;101569.41;;;8.32;68.56
57192;BME280;43052;52.588;13.396;2023-04-21T04:44:37;101573.94;;;8.44;68.17
57192;BME280;43052;52.588;13.396;2023-04-21T04:47:03;101563.72;;;8.55;67.81
57192;BME280;43052;52.588;13.396;2023-04-21T04:49:28;101563.72;;;8.56;67.48
57192;BME280;43052;52.588;13.396;2023-04-21T04:51:53;101573.44;;;8.65;67.21
57192;BME280;43052;52.588;13.396;2023-04-21T04:54:19;101570.97;;;8.74;66.80
57192;BME280;43052;52.588;13.396;2023-04-21T04:56:44;101568.41;;;8.77;66.77
57192;BME280;43052;52.588;13.396;2023-04-21T04:59:10;101581.53;;;8.84;66.55
57192;BME280;43052;52.588;13.396;2023-04-21T05:01:35;101577.25;;;8.87;66.49
57192;BME280;43052;52.588;13.396;2023-04-21T05:04:03;101574.72;;;8.95;66.32
57192;BME280;43052;52.588;13.396;2023-04-21T05:06:28;101581.78;;;9.01;66.19
57192;BME280;43052;52.588;13.396;2023-04-21T05:08:53;101571.47;;;9.10;65.29
57192;BME280;43052;52.588;13.396;2023-04-21T05:11:19;101582.94;;;9.21;64.67
57192;BME280;43052;52.588;13.396;2023-04-21T05:13:44;101575.22;;;9.31;64.37
57192;BME280;43052;52.588;13.396;2023-04-21T05:16:09;101578.00;;;9.45;64.31
57192;BME280;43052;52.588;13.396;2023-04-21T05:18:35;101573.81;;;9.57;63.35
57192;BME280;43052;52.588;13.396;2023-04-21T05:21:00;101573.22;;;9.83;63.01
57192;BME280;43052;52.588;13.396;2023-04-21T05:23:26;101565.84;;;10.34;61.60
57192;BME280;43052;52.588;13.396;2023-04-21T05:25:51;101572.56;;;11.25;59.55
57192;BME280;43052;52.588;13.396;2023-04-21T05:28:16;101575.47;;;12.26;57.45
57192;BME280;43052;52.588;13.396;2023-04-21T05:30:41;101569.22;;;13.21;54.86
57192;BME280;43052;52.588;13.396;2023-04-21T05:33:07;101567.13;;;13.93;53.57
57192;BME280;43052;52.588;13.396;2023-04-21T05:35:33;101563.81;;;14.75;52.37
57192;BME280;43052;52.588;13.396;2023-04-21T05:37:58;101566.19;;;15.01;48.92
57192;BME280;43052;52.588;13.396;2023-04-21T05:40:24;101567.69;;;15.21;48.53
57192;BME280;43052;52.588;13.396;2023-04-21T05:42:49;101566.44;;;15.53;47.73
57192;BME280;43052;52.588;13.396;2023-04-21T05:45:14;101566.03;;;15.84;46.13
57192;BME280;43052;52.588;13.396;2023-04-21T05:47:39;101565.28;;;16.32;45.70
57192;BME280;43052;52.588;13.396;2023-04-21T05:50:06;101564.19;;;16.96;44.06
57192;BME280;43052;52.588;13.396;2023-04-21T05:52:32;101549.38;;;16.85;43.05
57192;BME280;43052;52.588;13.396;2023-04-21T05:54:58;101558.06;;;16.92;42.78
57192;BME280;43052;52.588;13.396;2023-04-21T05:57:24;101562.25;;;17.04;42.20
57192;BME280;43052;52.588;13.396;2023-04-21T05:59:49;101563.59;;;17.25;42.44
57192;BME280;43052;52.588;13.396;2023-04-21T06:02:14;101558.03;;;17.78;41.62
57192;BME280;43052;52.588;13.396;2023-04-21T06:04:40;101544.84;;;18.14;40.41
57192;BME280;43052;52.588;13.396;2023-04-21T06:07:09;101548.47;;;18.46;39.79
57192;BME280;43052;52.588;13.396;2023-04-21T06:09:36;101550.34;;;18.76;39.86
57192;BME280;43052;52.588;13.396;2023-04-21T06:12:02;101543.69;;;18.94;38.09
57192;BME280;43052;52.588;13.396;2023-04-21T06:14:27;101550.81;;;18.90;38.50
57192;BME280;43052;52.588;13.396;2023-04-21T06:16:53;101547.09;;;19.29;38.42
57192;BME280;43052;52.588;13.396;2023-04-21T06:19:18;101538.72;;;19.73;37.28
57192;BME280;43052;52.588;13.396;2023-04-21T06:21:43;101538.31;;;20.39;36.37
57192;BME280;43052;52.588;13.396;2023-04-21T06:24:08;101528.50;;;20.93;35.75
57192;BME280;43052;52.588;13.396;2023-04-21T06:26:34;101531.44;;;21.55;34.47
57192;BME280;43052;52.588;13.396;2023-04-21T06:28:59;101524.41;;;21.54;33.45
57192;BME280;43052;52.588;13.396;2023-04-21T06:31:24;101525.78;;;21.65;33.57
57192;BME280;43052;52.588;13.396;2023-04-21T06:33:50;101520.31;;;22.12;33.09
57192;BME280;43052;52.588;13.396;2023-04-21T06:36:15;101518.00;;;22.66;31.28
57192;BME280;43052;52.588;13.396;2023-04-21T06:38:40;101528.50;;;22.50;31.65
57192;BME280;43052;52.588;13.396;2023-04-21T06:41:10;101525.44;;;22.17;31.65
57192;BME280;43052;52.588;13.396;2023-04-21T06:43:35;101520.31;;;22.12;31.91
57192;BME280;43052;52.588;13.396;2023-04-21T06:46:00;101524.03;;;22.51;31.85
57192;BME280;43052;52.588;13.396;2023-04-21T06:48:26;101530.34;;;22.69;30.35
57192;BME280;43052;52.588;13.396;2023-04-21T06:50:51;101533.88;;;22.49;30.75
57192;BME280;43052;52.588;13.396;2023-04-21T06:53:17;101516.81;;;22.53;31.25
57192;BME280;43052;52.588;13.396;2023-04-21T06:55:42;101523.28;;;22.47;30.39
57192;BME280;43052;52.588;13.396;2023-04-21T06:58:07;101513.84;;;22.40;30.19
57192;BME280;43052;52.588;13.396;2023-04-21T07:00:33;101518.78;;;22.89;30.57
57192;BME280;43052;52.588;13.396;2023-04-21T07:02:58;101513.31;;;23.69;29.16
57192;BME280;43052;52.588;13.396;2023-04-21T07:05:23;101523.84;;;24.44;29.03
57192;BME280;43052;52.588;13.396;2023-04-21T07:07:49;101513.59;;;25.19;27.68
57192;BME280;43052;52.588;13.396;2023-04-21T07:10:14;101513.53;;;25.37;27.42
57192;BME280;43052;52.588;13.396;2023-04-21T07:12:43;101509.25;;;26.27;26.89
57192;BME280;43052;52.588;13.396;2023-04-21T07:15:09;101507.91;;;26.79;25.31
57192;BME280;43052;52.588;13.396;2023-04-21T07:17:34;101505.50;;;26.89;24.69
57192;BME280;43052;52.588;13.396;2023-04-21T07:19:59;101505.69;;;26.12;24.78
57192;BME280;43052;52.588;13.396;2023-04-21T07:22:24;101503.69;;;25.21;25.96
57192;BME280;43052;52.588;13.396;2023-04-21T07:24:50;101514.59;;;25.96;25.76
57192;BME280;43052;52.588;13.396;2023-04-21T07:27:15;101514.16;;;26.80;24.87
57192;BME280;43052;52.588;13.396;2023-04-21T07:29:43;101510.94;;;26.58;24.09
57192;BME280;43052;52.588;13.396;2023-04-21T07:32:08;101506.53;;;25.66;25.46
57192;BME280;43052;52.588;13.396;2023-04-21T07:34:33;101501.91;;;26.31;25.05
57192;BME280;43052;52.588;13.396;2023-04-21T07:36:58;101502.22;;;26.55;24.54
57192;BME280;43052;52.588;13.396;2023-04-21T07:39:24;101516.72;;;26.81;24.62
57192;BME280;43052;52.588;13.396;2023-04-21T07:41:49;101503.88;;;26.57;24.33
57192;BME280;43052;52.588;13.396;2023-04-21T07:44:14;101506.22;;;26.33;24.35
57192;BME280;43052;52.588;13.396;2023-04-21T07:46:39;101519.34;;;26.07;24.84
57192;BME280;43052;52.588;13.396;2023-04-21T07:49:05;101506.72;;;26.09;24.93
57192;BME280;43052;52.588;13.396;2023-04-21T07:51:30;101512.25;;;26.37;24.61
57192;BME280;43052;52.588;13.396;2023-04-21T07:53:55;101510.22;;;27.00;24.15
57192;BME280;43052;52.588;13.396;2023-04-21T07:56:21;101503.97;;;27.56;23.20
57192;BME280;43052;52.588;13.396;2023-04-21T07:58:46;101505.81;;;27.55;22.72
57192;BME280;43052;52.588;13.396;2023-04-21T08:01:11;101509.81;;;27.90;23.01
57192;BME280;43052;52.588;13.396;2023-04-21T08:03:37;101509.59;;;28.33;22.44
57192;BME280;43052;52.588;13.396;2023-04-21T08:06:02;101506.72;;;27.81;22.27
57192;BME280;43052;52.588;13.396;2023-04-21T08:08:27;101511.09;;;27.70;22.59
57192;BME280;43052;52.588;13.396;2023-04-21T08:10:52;101501.63;;;27.64;22.87
57192;BME280;43052;52.588;13.396;2023-04-21T08:13:18;101507.09;;;28.56;21.97
57192;BME280;43052;52.588;13.396;2023-04-21T08:15:45;101505.06;;;28.46;21.80
57192;BME280;43052;52.588;13.396;2023-04-21T08:18:10;101500.88;;;28.68;21.39
57192;BME280;43052;52.588;13.396;2023-04-21T08:20:35;101504.84;;;28.63;21.62
57192;BME280;43052;52.588;13.396;2023-04-21T08:23:00;101497.75;;;29.24;21.00
57192;BME280;43052;52.588;13.396;2023-04-21T08:25:26;101497.81;;;29.12;21.16
57192;BME280;43052;52.588;13.396;2023-04-21T08:27:51;101492.56;;;28.45;21.41
57192;BME280;43052;52.588;13.396;2023-04-21T08:30:16;101498.72;;;28.48;22.15
57192;BME280;43052;52.588;13.396;2023-04-21T08:32:42;101497.97;;;29.34;21.64
57192;BME280;43052;52.588;13.396;2023-04-21T08:35:07;101493.81;;;29.17;21.64
57192;BME280;43052;52.588;13.396;2023-04-21T08:37:35;101490.38;;;30.24;21.32
57192;BME280;43052;52.588;13.396;2023-04-21T08:40:01;101480.97;;;31.64;19.74
57192;BME280;43052;52.588;13.396;2023-04-21T08:42:26;101491.38;;;32.01;18.58
57192;BME280;43052;52.588;13.396;2023-04-21T08:44:51;101491.53;;;31.01;19.68
57192;BME280;43052;52.588;13.396;2023-04-21T08:47:17;101490.22;;;30.72;18.96
57192;BME280;43052;52.588;13.396;2023-04-21T08:49:45;101488.78;;;30.21;20.44
57192;BME280;43052;52.588;13.396;2023-04-21T08:52:13;101491.59;;;29.84;20.15
57192;BME280;43052;52.588;13.396;2023-04-21T08:54:39;101489.88;;;29.34;21.21
57192;BME280;43052;52.588;13.396;2023-04-21T08:57:04;101478.97;;;30.09;20.42
57192;BME280;43052;52.588;13.396;2023-04-21T08:59:31;101475.94;;;31.04;19.31
57192;BME280;43052;52.588;13.396;2023-04-21T09:04:32;101484.69;;;30.74;19.74
57192;BME280;43052;52.588;13.396;2023-04-21T09:06:57;101481.84;;;29.94;20.08
57192;BME280;43052;52.588;13.396;2023-04-21T09:09:22;101477.03;;;30.33;19.40
57192;BME280;43052;52.588;13.396;2023-04-21T09:11:55;101482.00;;;30.62;19.69
57192;BME280;43052;52.588;13.396;2023-04-21T09:14:21;101489.00;;;31.10;19.26
57192;BME280;43052;52.588;13.396;2023-04-21T09:16:58;101485.69;;;31.83;18.86
57192;BME280;43052;52.588;13.396;2023-04-21T09:19:26;101475.81;;;32.15;18.16
57192;BME280;43052;52.588;13.396;2023-04-21T09:21:51;101478.41;;;32.69;17.93
57192;BME280;43052;52.588;13.396;2023-04-21T09:24:17;101475.97;;;33.06;17.82
57192;BME280;43052;52.588;13.396;2023-04-21T09:26:43;101483.41;;;33.24;17.09
57192;BME280;43052;52.588;13.396;2023-04-21T09:29:08;101488.06;;;32.61;18.09
57192;BME280;43052;52.588;13.396;2023-04-21T09:31:34;101476.69;;;32.77;18.16
57192;BME280;43052;52.588;13.396;2023-04-21T09:33:59;101483.03;;;33.38;17.11
57192;BME280;43052;52.588;13.396;2023-04-21T09:36:27;101478.00;;;32.73;17.35
57192;BME280;43052;52.588;13.396;2023-04-21T09:41:18;101472.13;;;30.39;19.29
57192;BME280;43052;52.588;13.396;2023-04-21T09:43:44;101476.81;;;30.48;19.68
57192;BME280;43052;52.588;13.396;2023-04-21T09:46:10;101470.97;;;30.77;19.36
57192;BME280;43052;52.588;13.396;2023-04-21T09:48:36;101464.22;;;31.38;18.84
57192;BME280;43052;52.588;13.396;2023-04-21T09:51:04;101466.25;;;31.02;18.56
57192;BME280;43052;52.588;13.396;2023-04-21T09:53:31;101467.50;;;30.63;18.83
57192;BME280;43052;52.588;13.396;2023-04-21T09:55:57;101467.25;;;31.12;18.77
57192;BME280;43052;52.588;13.396;2023-04-21T09:58:26;101457.34;;;31.78;18.39
57192;BME280;43052;52.588;13.396;2023-04-21T10:00:52;101450.19;;;32.40;17.71
57192;BME280;43052;52.588;13.396;2023-04-21T10:03:21;101449.53;;;32.79;17.15
57192;BME280;43052;52.588;13.396;2023-04-21T10:05:49;101454.19;;;32.36;17.35
57192;BME280;43052;52.588;13.396;2023-04-21T10:08:15;101458.06;;;32.22;17.49
57192;BME280;43052;52.588;13.396;2023-04-21T10:10:41;101454.25;;;32.03;17.10
57192;BME280;43052;52.588;13.396;2023-04-21T10:13:12;101456.09;;;30.83;18.25
57192;BME280;43052;52.588;13.396;2023-04-21T10:15:40;101455.59;;;30.89;18.71
57192;BME280;43052;52.588;13.396;2023-04-21T10:20:50;101449.91;;;30.12;18.15
57192;BME280;43052;52.588;13.396;2023-04-21T10:26:00;101446.06;;;29.19;18.43
57192;BME280;43052;52.588;13.396;2023-04-21T10:28:47;101447.22;;;27.88;19.87
57192;BME280;43052;52.588;13.396;2023-04-21T10:31:24;101438.50;;;27.71;20.07
57192;BME280;43052;52.588;13.396;2023-04-21T10:36:32;101422.44;;;28.49;19.22
57192;BME280;43052;52.588;13.396;2023-04-21T10:39:02;101438.84;;;27.79;20.14
57192;BME280;43052;52.588;13.396;2023-04-21T10:41:32;101435.94;;;26.71;21.05
57192;BME280;43052;52.588;13.396;2023-04-21T10:44:13;101430.41;;;24.07;24.39
57192;BME280;43052;52.588;13.396;2023-04-21T10:46:43;101448.22;;;22.17;26.49
57192;BME280;43052;52.588;13.396;2023-04-21T10:49:11;101447.13;;;20.89;28.21
57192;BME280;43052;52.588;13.396;2023-04-21T10:54:23;101425.03;;;19.87;30.98
57192;BME280;43052;52.588;13.396;2023-04-21T10:56:54;101428.88;;;19.77;30.62
57192;BME280;43052;52.588;13.396;2023-04-21T10:59:20;101436.00;;;19.77;31.26
57192;BME280;43052;52.588;13.396;2023-04-21T11:01:46;101420.16;;;19.73;31.77
57192;BME280;43052;52.588;13.396;2023-04-21T11:04:16;101427.97;;;19.78;31.21
57192;BME280;43052;52.588;13.396;2023-04-21T11:06:41;101421.50;;;19.60;31.62
57192;BME280;43052;52.588;13.396;2023-04-21T11:09:07;101420.06;;;19.50;31.36
57192;BME280;43052;52.588;13.396;2023-04-21T11:11:33;101409.41;;;19.51;31.09
57192;BME280;43052;52.588;13.396;2023-04-21T11:14:00;101414.78;;;19.48;31.15
57192;BME280;43052;52.588;13.396;2023-04-21T11:16:26;101414.09;;;19.43;31.32
57192;BME280;43052;52.588;13.396;2023-04-21T11:18:51;101397.50;;;19.36;31.58
57192;BME280;43052;52.588;13.396;2023-04-21T11:21:18;101403.84;;;19.32;31.84
57192;BME280;43052;52.588;13.396;2023-04-21T11:23:53;101399.75;;;19.22;32.61
57192;BME280;43052;52.588;13.396;2023-04-21T11:26:29;101395.34;;;19.21;32.98
57192;BME280;43052;52.588;13.396;2023-04-21T11:28:55;101397.78;;;19.27;32.36
57192;BME280;43052;52.588;13.396;2023-04-21T11:31:27;101396.94;;;19.26;31.94
57192;BME280;43052;52.588;13.396;2023-04-21T11:33:54;101397.16;;;19.20;31.70
57192;BME280;43052;52.588;13.396;2023-04-21T11:36:20;101382.03;;;19.22;32.19
57192;BME280;43052;52.588;13.396;2023-04-21T11:38:45;101380.06;;;19.29;32.25
57192;BME280;43052;52.588;13.396;2023-04-21T11:41:11;101389.25;;;19.46;31.52
57192;BME280;43052;52.588;13.396;2023-04-21T11:43:37;101380.44;;;19.45;31.69
57192;BME280;43052;52.588;13.396;2023-04-21T11:46:24;101373.47;;;19.42;32.03
57192;BME280;43052;52.588;13.396;2023-04-21T11:48:58;101379.38;;;19.51;31.46
57192;BME280;43052;52.588;13.396;2023-04-21T11:51:23;101372.94;;;19.58;31.61
57192;BME280;43052;52.588;13.396;2023-04-21T11:53:48;101365.50;;;19.69;31.77
57192;BME280;43052;52.588;13.396;2023-04-21T11:56:19;101373.22;;;19.76;31.32
57192;BME280;43052;52.588;13.396;2023-04-21T11:58:46;101379.91;;;19.61;31.39
57192;BME280;43052;52.588;13.396;2023-04-21T12:01:14;101362.63;;;19.49;32.02
57192;BME280;43052;52.588;13.396;2023-04-21T12:03:39;101365.03;;;19.56;31.27
57192;BME280;43052;52.588;13.396;2023-04-21T12:06:05;101360.44;;;19.62;32.01
57192;BME280;43052;52.588;13.396;2023-04-21T12:08:31;101361.25;;;19.64;31.82
57192;BME280;43052;52.588;13.396;2023-04-21T12:10:57;101354.59;;;19.77;31.09
57192;BME280;43052;52.588;13.396;2023-04-21T12:13:26;101352.81;;;19.78;30.83
57192;BME280;43052;52.588;13.396;2023-04-21T12:15:51;101352.84;;;19.76;31.07
57192;BME280;43052;52.588;13.396;2023-04-21T12:18:16;101349.34;;;19.76;31.73
57192;BME280;43052;52.588;13.396;2023-04-21T12:20:51;101350.09;;;19.79;31.97
57192;BME280;43052;52.588;13.396;2023-04-21T12:23:17;101347.78;;;19.70;32.11
57192;BME280;43052;52.588;13.396;2023-04-21T12:25:43;101350.13;;;19.52;32.53
57192;BME280;43052;52.588;13.396;2023-04-21T12:28:10;101344.06;;;19.49;32.97
57192;BME280;43052;52.588;13.396;2023-04-21T12:30:35;101329.44;;;19.64;32.17
57192;BME280;43052;52.588;13.396;2023-04-21T12:33:00;101337.31;;;19.65;31.91
57192;BME280;43052;52.588;13.396;2023-04-21T12:35:25;101340.47;;;19.77;31.81
57192;BME280;43052;52.588;13.396;2023-04-21T12:37:51;101338.44;;;19.85;31.18
57192;BME280;43052;52.588;13.396;2023-04-21T12:40:16;101320.72;;;19.85;30.71
57192;BME280;43052;52.588;13.396;2023-04-21T12:42:41;101330.88;;;19.72;31.37
57192;BME280;43052;52.588;13.396;2023-04-21T12:45:07;101325.56;;;19.72;31.41
57192;BME280;43052;52.588;13.396;2023-04-21T12:47:33;101322.69;;;19.53;31.58
57192;BME280;43052;52.588;13.396;2023-04-21T12:49:58;101330.97;;;19.44;31.83
57192;BME280;43052;52.588;13.396;2023-04-21T12:52:23;101319.50;;;19.44;31.90
57192;BME280;43052;52.588;13.396;2023-04-21T12:54:49;101316.34;;;19.57;31.18